sensor_id;sensor_type;location;lat;lon;timestamp;pressure;altitude;pressure_sealevel;temperature;humidity
32131;BME280;18639;50.716;7.086;2024-02-15T00:01:08;100514.53;;;11.00;100.00
32131;BME280;18639;50.716;7.086;2024-02-15T00:03:33;100518.75;;;11.01;100.00
32131;BME280;18639;50.716;7.086;2024-02-15T00:06:00;100507.88;;;10.96;100.00
32131;BME280;18639;50.716;7.086;2024-02-15T00:08:26;100555.91;;;11.27;100.00
32131;BME280;18639;50.716;7.086;2024-02-15T00:10:52;100589.56;;;11.39;100.00
32131;BME280;18639;50.716;7.086;2024-02-15T00:13:18;100592.91;;;11.42;100.00
32131;BME280;18639;50.716;7.086;2024-02-15T00:15:44;100537.22;;;11.09;100.00
32131;BME280;18639;50.716;7.086;2024-02-15T00:18:10;100534.63;;;11.09;100.00
32131;BME280;18639;50.716;7.086;2024-02-15T00:20:36;100557.00;;;11.23;100.00
32131;BME280;18639;50.716;7.086;2024-02-15T00:23:01;100527.25;;;11.03;100.00
32131;BME280;18639;50.716;7.086;2024-02-15T00:25:26;100568.19;;;11.23;100.00
32131;BME280;18639;50.716;7.086;2024-02-15T00:27:51;100572.97;;;11.29;100.00
32131;BME280;18639;50.716;7.086;2024-02-15T00:30:17;100539.59;;;11.12;100.00
32131;BME280;18639;50.716;7.086;2024-02-15T00:32:42;100561.19;;;11.25;100.00
32131;BME280;18639;50.716;7.086;2024-02-15T00:35:09;100524.66;;;11.03;100.00
32131;BME280;18639;50.716;7.086;2024-02-15T00:37:35;100574.44;;;11.33;100.00
32131;BME280;18639;50.716;7.086;2024-02-15T00:40:01;100554.09;;;11.15;100.00
32131;BME280;18639;50.716;7.086;2024-02-15T00:42:32;100576.59;;;11.27;100.00
32131;BME280;18639;50.716;7.086;2024-02-15T00:44:58;100541.00;;;11.04;100.00
32131;BME280;18639;50.716;7.086;2024-02-15T00:47:23;100544.06;;;11.10;100.00
32131;BME280;18639;50.716;7.086;2024-02-15T00:49:49;100568.19;;;11.23;100.00
32131;BME280;18639;50.716;7.086;2024-02-15T00:52:15;100585.28;;;11.26;100.00
32131;BME280;18639;50.716;7.086;2024-02-15T00:54:42;100552.91;;;11.06;100.00
32131;BME280;18639;50.716;7.086;2024-02-15T00:57:08;100543.25;;;10.95;100.00
32131;BME280;18639;50.716;7.086;2024-02-15T00:59:33;100580.97;;;11.12;100.00
32131;BME280;18639;50.716;7.086;2024-02-15T01:02:01;100584.38;;;11.13;100.00
32131;BME280;18639;50.716;7.086;2024-02-15T01:04:27;100572.13;;;11.02;100.00
32131;BME280;18639;50.716;7.086;2024-02-15T01:06:53;100542.16;;;10.85;100.00
32131;BME280;18639;50.716;7.086;2024-02-15T01:09:18;100543.00;;;10.86;100.00
32131;BME280;18639;50.716;7.086;2024-02-15T01:11:44;100508.88;;;10.67;100.00
32131;BME280;18639;50.716;7.086;2024-02-15T01:14:09;100551.50;;;10.88;100.00
32131;BME280;18639;50.716;7.086;2024-02-15T01:16:35;100575.84;;;10.98;100.00
32131;BME280;18639;50.716;7.086;2024-02-15T01:19:01;100560.72;;;10.92;100.00
32131;BME280;18639;50.716;7.086;2024-02-15T01:21:26;100582.72;;;11.12;100.00
32131;BME280;18639;50.716;7.086;2024-02-15T01:23:52;100563.75;;;10.98;100.00
32131;BME280;18639;50.716;7.086;2024-02-15T01:26:19;100593.06;;;11.12;100.00
32131;BME280;18639;50.716;7.086;2024-02-15T01:28:45;100569.38;;;11.05;100.00
32131;BME280;18639;50.716;7.086;2024-02-15T01:31:10;100535.25;;;10.86;100.00
32131;BME280;18639;50.716;7.086;2024-02-15T01:33:37;100583.94;;;11.06;100.00
32131;BME280;18639;50.716;7.086;2024-02-15T01:36:03;100578.09;;;11.17;100.00
32131;BME280;18639;50.716;7.086;2024-02-15T01:38:28;100537.44;;;10.92;100.00
32131;BME280;18639;50.716;7.086;2024-02-15T01:40:54;100575.41;;;11.18;100.00
32131;BME280;18639;50.716;7.086;2024-02-15T01:43:19;100571.00;;;11.20;100.00
32131;BME280;18639;50.716;7.086;2024-02-15T01:45:44;100526.72;;;10.98;100.00
32131;BME280;18639;50.716;7.086;2024-02-15T01:48:12;100558.59;;;11.25;100.00
32131;BME280;18639;50.716;7.086;2024-02-15T01:50:38;100557.47;;;11.29;100.00
32131;BME280;18639;50.716;7.086;2024-02-15T01:53:07;100523.38;;;11.10;100.00
32131;BME280;18639;50.716;7.086;2024-02-15T01:55:33;100547.94;;;11.30;100.00
32131;BME280;18639;50.716;7.086;2024-02-15T01:57:58;100550.75;;;11.27;100.00
32131;BME280;18639;50.716;7.086;2024-02-15T02:00:24;100553.75;;;11.33;100.00
32131;BME280;18639;50.716;7.086;2024-02-15T02:02:49;100555.00;;;11.40;100.00
32131;BME280;18639;50.716;7.086;2024-02-15T02:05:15;100560.09;;;11.42;100.00
32131;BME280;18639;50.716;7.086;2024-02-15T02:07:40;100510.53;;;11.09;100.00
32131;BME280;18639;50.716;7.086;2024-02-15T02:10:07;100568.19;;;11.50;100.00
32131;BME280;18639;50.716;7.086;2024-02-15T02:12:34;100548.69;;;11.45;100.00
32131;BME280;18639;50.716;7.086;2024-02-15T02:14:59;100531.72;;;11.40;100.00
32131;BME280;18639;50.716;7.086;2024-02-15T02:17:24;100548.00;;;11.55;100.00
32131;BME280;18639;50.716;7.086;2024-02-15T02:19:50;100531.63;;;11.42;100.00
32131;BME280;18639;50.716;7.086;2024-02-15T02:22:16;100488.94;;;11.22;100.00
32131;BME280;18639;50.716;7.086;2024-02-15T02:25:07;100549.47;;;11.59;100.00
32131;BME280;18639;50.716;7.086;2024-02-15T02:27:33;100543.34;;;11.60;100.00
32131;BME280;18639;50.716;7.086;2024-02-15T02:29:59;100527.91;;;11.46;100.00
32131;BME280;18639;50.716;7.086;2024-02-15T02:32:27;100542.00;;;11.55;100.00
32131;BME280;18639;50.716;7.086;2024-02-15T02:34:53;100543.47;;;11.59;100.00
32131;BME280;18639;50.716;7.086;2024-02-15T02:37:23;100511.78;;;11.43;100.00
32131;BME280;18639;50.716;7.086;2024-02-15T02:39:49;100546.78;;;11.61;100.00
32131;BME280;18639;50.716;7.086;2024-02-15T02:42:14;100465.78;;;11.21;100.00
32131;BME280;18639;50.716;7.086;2024-02-15T02:44:40;100497.06;;;11.43;100.00
32131;BME280;18639;50.716;7.086;2024-02-15T02:47:05;100504.00;;;11.43;100.00
32131;BME280;18639;50.716;7.086;2024-02-15T02:49:30;100494.19;;;11.48;100.00
32131;BME280;18639;50.716;7.086;2024-02-15T02:51:56;100451.09;;;11.21;100.00
32131;BME280;18639;50.716;7.086;2024-02-15T02:54:25;100511.16;;;11.52;100.00
32131;BME280;18639;50.716;7.086;2024-02-15T02:56:50;100532.91;;;11.62;100.00
32131;BME280;18639;50.716;7.086;2024-02-15T02:59:15;100506.38;;;11.46;100.00
32131;BME280;18639;50.716;7.086;2024-02-15T03:01:41;100492.81;;;11.42;100.00
32131;BME280;18639;50.716;7.086;2024-02-15T03:04:07;100492.91;;;11.40;100.00
32131;BME280;18639;50.716;7.086;2024-02-15T03:06:33;100501.81;;;11.36;100.00
32131;BME280;18639;50.716;7.086;2024-02-15T03:08:58;100516.13;;;11.42;100.00
32131;BME280;18639;50.716;7.086;2024-02-15T03:11:24;100454.94;;;11.02;100.00
32131;BME280;18639;50.716;7.086;2024-02-15T03:13:49;100483.47;;;11.27;100.00
32131;BME280;18639;50.716;7.086;2024-02-15T03:16:14;100465.56;;;11.24;100.00
32131;BME280;18639;50.716;7.086;2024-02-15T03:18:42;100462.34;;;11.20;100.00
32131;BME280;18639;50.716;7.086;2024-02-15T03:21:07;100433.94;;;11.06;100.00
32131;BME280;18639;50.716;7.086;2024-02-15T03:23:36;100506.81;;;11.52;100.00
32131;BME280;18639;50.716;7.086;2024-02-15T03:26:02;100429.59;;;11.07;100.00
32131;BME280;18639;50.716;7.086;2024-02-15T03:28:29;100498.09;;;11.40;100.00
32131;BME280;18639;50.716;7.086;2024-02-15T03:30:54;100450.00;;;11.11;100.00
32131;BME280;18639;50.716;7.086;2024-02-15T03:33:21;100474.88;;;11.26;100.00
32131;BME280;18639;50.716;7.086;2024-02-15T03:35:51;100503.88;;;11.44;100.00
32131;BME280;18639;50.716;7.086;2024-02-15T03:38:16;100499.75;;;11.42;100.00
32131;BME280;18639;50.716;7.086;2024-02-15T03:40:42;100488.66;;;11.39;100.00
32131;BME280;18639;50.716;7.086;2024-02-15T03:43:08;100486.47;;;11.33;100.00
32131;BME280;18639;50.716;7.086;2024-02-15T03:45:33;100454.91;;;11.16;100.00
32131;BME280;18639;50.716;7.086;2024-02-15T03:47:58;100462.97;;;11.24;100.00
32131;BME280;18639;50.716;7.086;2024-02-15T03:50:24;100493.53;;;11.44;100.00
32131;BME280;18639;50.716;7.086;2024-02-15T03:52:49;100483.50;;;11.39;100.00
32131;BME280;18639;50.716;7.086;2024-02-15T03:55:18;100511.78;;;11.55;100.00
32131;BME280;18639;50.716;7.086;2024-02-15T03:57:43;100468.56;;;11.30;100.00
32131;BME280;18639;50.716;7.086;2024-02-15T04:00:10;100481.75;;;11.53;100.00
32131;BME280;18639;50.716;7.086;2024-02-15T04:02:36;100498.34;;;11.63;100.00
32131;BME280;18639;50.716;7.086;2024-02-15T04:05:02;100508.38;;;11.67;100.00
32131;BME280;18639;50.716;7.086;2024-02-15T04:07:30;100495.44;;;11.67;100.00
32131;BME280;18639;50.716;7.086;2024-02-15T04:09:55;100445.06;;;11.33;100.00
32131;BME280;18639;50.716;7.086;2024-02-15T04:12:21;100505.28;;;11.62;100.00
32131;BME280;18639;50.716;7.086;2024-02-15T04:14:47;100510.75;;;11.58;100.00
32131;BME280;18639;50.716;7.086;2024-02-15T04:17:13;100468.78;;;11.40;100.00
32131;BME280;18639;50.716;7.086;2024-02-15T04:19:45;100512.41;;;11.59;100.00
32131;BME280;18639;50.716;7.086;2024-02-15T04:22:12;100445.16;;;11.19;100.00
32131;BME280;18639;50.716;7.086;2024-02-15T04:24:37;100447.75;;;11.19;100.00
32131;BME280;18639;50.716;7.086;2024-02-15T04:27:05;100439.94;;;11.07;100.00
32131;BME280;18639;50.716;7.086;2024-02-15T04:29:34;100497.88;;;11.44;100.00
32131;BME280;18639;50.716;7.086;2024-02-15T04:31:59;100495.28;;;11.44;100.00
32131;BME280;18639;50.716;7.086;2024-02-15T04:34:24;100486.41;;;11.48;100.00
32131;BME280;18639;50.716;7.086;2024-02-15T04:36:49;100487.97;;;11.50;100.00
32131;BME280;18639;50.716;7.086;2024-02-15T04:39:16;100493.22;;;11.49;100.00
32131;BME280;18639;50.716;7.086;2024-02-15T04:41:50;100463.09;;;11.35;100.00
32131;BME280;18639;50.716;7.086;2024-02-15T04:44:16;100516.84;;;11.57;100.00
32131;BME280;18639;50.716;7.086;2024-02-15T04:46:41;100487.13;;;11.37;100.00
32131;BME280;18639;50.716;7.086;2024-02-15T04:49:10;100427.69;;;11.10;100.00
32131;BME280;18639;50.716;7.086;2024-02-15T04:51:35;100452.94;;;11.19;100.00
32131;BME280;18639;50.716;7.086;2024-02-15T04:54:01;100420.94;;;11.08;100.00
32131;BME280;18639;50.716;7.086;2024-02-15T04:56:27;100472.84;;;11.31;100.00
32131;BME280;18639;50.716;7.086;2024-02-15T04:58:52;100411.09;;;11.00;100.00
32131;BME280;18639;50.716;7.086;2024-02-15T05:01:19;100413.56;;;11.02;100.00
32131;BME280;18639;50.716;7.086;2024-02-15T05:03:44;100497.69;;;11.59;100.00
32131;BME280;18639;50.716;7.086;2024-02-15T05:06:10;100413.06;;;11.09;100.00
32131;BME280;18639;50.716;7.086;2024-02-15T05:08:38;100498.13;;;11.66;100.00
32131;BME280;18639;50.716;7.086;2024-02-15T05:11:08;100486.72;;;11.56;100.00
32131;BME280;18639;50.716;7.086;2024-02-15T05:13:38;100467.03;;;11.40;100.00
32131;BME280;18639;50.716;7.086;2024-02-15T05:16:04;100453.50;;;11.37;100.00
32131;BME280;18639;50.716;7.086;2024-02-15T05:18:30;100480.09;;;11.52;100.00
32131;BME280;18639;50.716;7.086;2024-02-15T05:20:56;100426.00;;;11.09;100.00
32131;BME280;18639;50.716;7.086;2024-02-15T05:23:21;100472.00;;;11.44;100.00
32131;BME280;18639;50.716;7.086;2024-02-15T05:25:46;100486.94;;;11.53;100.00
32131;BME280;18639;50.716;7.086;2024-02-15T05:28:12;100475.13;;;11.49;100.00
32131;BME280;18639;50.716;7.086;2024-02-15T05:30:37;100487.13;;;11.50;100.00
32131;BME280;18639;50.716;7.086;2024-02-15T05:33:04;100439.06;;;11.20;100.00
32131;BME280;18639;50.716;7.086;2024-02-15T05:35:30;100474.28;;;11.35;100.00
32131;BME280;18639;50.716;7.086;2024-02-15T05:37:55;100484.63;;;11.35;100.00
32131;BME280;18639;50.716;7.086;2024-02-15T05:40:21;100419.03;;;10.97;100.00
32131;BME280;18639;50.716;7.086;2024-02-15T05:42:46;100466.81;;;11.31;100.00
32131;BME280;18639;50.716;7.086;2024-02-15T05:45:28;100434.47;;;11.11;100.00
32131;BME280;18639;50.716;7.086;2024-02-15T05:48:04;100461.13;;;11.26;100.00
32131;BME280;18639;50.716;7.086;2024-02-15T05:50:31;100467.25;;;11.37;100.00
32131;BME280;18639;50.716;7.086;2024-02-15T05:52:57;100460.00;;;11.30;100.00
32131;BME280;18639;50.716;7.086;2024-02-15T05:55:23;100474.31;;;11.48;100.00
32131;BME280;18639;50.716;7.086;2024-02-15T05:57:51;100480.94;;;11.52;100.00
32131;BME280;18639;50.716;7.086;2024-02-15T06:00:16;100481.84;;;11.51;100.00
32131;BME280;18639;50.716;7.086;2024-02-15T06:02:44;100458.66;;;11.37;100.00
32131;BME280;18639;50.716;7.086;2024-02-15T06:05:09;100476.91;;;11.48;100.00
32131;BME280;18639;50.716;7.086;2024-02-15T06:07:35;100449.25;;;11.36;100.00
32131;BME280;18639;50.716;7.086;2024-02-15T06:10:00;100460.19;;;11.39;100.00
32131;BME280;18639;50.716;7.086;2024-02-15T06:12:29;100452.13;;;11.31;100.00
32131;BME280;18639;50.716;7.086;2024-02-15T06:14:55;100456.06;;;11.37;100.00
32131;BME280;18639;50.716;7.086;2024-02-15T06:17:20;100414.00;;;11.08;100.00
32131;BME280;18639;50.716;7.086;2024-02-15T06:19:46;100421.88;;;11.19;100.00
32131;BME280;18639;50.716;7.086;2024-02-15T06:22:11;100451.09;;;11.34;100.00
32131;BME280;18639;50.716;7.086;2024-02-15T06:24:37;100425.50;;;11.17;100.00
32131;BME280;18639;50.716;7.086;2024-02-15T06:27:03;100469.84;;;11.50;100.00
32131;BME280;18639;50.716;7.086;2024-02-15T06:29:28;100472.34;;;11.52;100.00
32131;BME280;18639;50.716;7.086;2024-02-15T06:32:13;100479.38;;;11.50;100.00
32131;BME280;18639;50.716;7.086;2024-02-15T06:34:56;100481.84;;;11.51;100.00
32131;BME280;18639;50.716;7.086;2024-02-15T06:37:40;100470.16;;;11.46;100.00
32131;BME280;18639;50.716;7.086;2024-02-15T06:40:24;100473.25;;;11.51;100.00
32131;BME280;18639;50.716;7.086;2024-02-15T06:42:50;100476.59;;;11.53;100.00
32131;BME280;18639;50.716;7.086;2024-02-15T06:45:16;100461.56;;;11.45;100.00
32131;BME280;18639;50.716;7.086;2024-02-15T06:47:43;100479.06;;;11.54;100.00
32131;BME280;18639;50.716;7.086;2024-02-15T06:50:14;100456.78;;;11.39;100.00
32131;BME280;18639;50.716;7.086;2024-02-15T06:52:40;100480.72;;;11.55;100.00
32131;BME280;18639;50.716;7.086;2024-02-15T06:55:07;100470.06;;;11.60;100.00
32131;BME280;18639;50.716;7.086;2024-02-15T06:57:34;100397.47;;;11.11;100.00
32131;BME280;18639;50.716;7.086;2024-02-15T07:00:03;100457.31;;;11.44;100.00
32131;BME280;18639;50.716;7.086;2024-02-15T07:02:29;100472.53;;;11.49;100.00
32131;BME280;18639;50.716;7.086;2024-02-15T07:04:55;100408.63;;;11.11;100.00
32131;BME280;18639;50.716;7.086;2024-02-15T07:07:20;100456.47;;;11.44;100.00
32131;BME280;18639;50.716;7.086;2024-02-15T07:09:47;100466.44;;;11.50;100.00
32131;BME280;18639;50.716;7.086;2024-02-15T07:12:14;100453.19;;;11.42;100.00
32131;BME280;18639;50.716;7.086;2024-02-15T07:14:44;100474.22;;;11.62;100.00
32131;BME280;18639;50.716;7.086;2024-02-15T07:17:12;100444.59;;;11.41;100.00
32131;BME280;18639;50.716;7.086;2024-02-15T07:19:43;100490.56;;;11.63;100.00
32131;BME280;18639;50.716;7.086;2024-02-15T07:22:09;100458.53;;;11.38;100.00
32131;BME280;18639;50.716;7.086;2024-02-15T07:24:35;100449.84;;;11.39;100.00
32131;BME280;18639;50.716;7.086;2024-02-15T07:27:06;100491.94;;;11.68;100.00
32131;BME280;18639;50.716;7.086;2024-02-15T07:29:31;100444.16;;;11.34;100.00
32131;BME280;18639;50.716;7.086;2024-02-15T07:31:58;100491.81;;;11.70;100.00
32131;BME280;18639;50.716;7.086;2024-02-15T07:34:25;100446.34;;;11.40;100.00
32131;BME280;18639;50.716;7.086;2024-02-15T07:36:51;100504.38;;;11.76;100.00
32131;BME280;18639;50.716;7.086;2024-02-15T07:39:31;100476.91;;;11.48;100.00
32131;BME280;18639;50.716;7.086;2024-02-15T07:41:57;100422.41;;;11.24;100.00
32131;BME280;18639;50.716;7.086;2024-02-15T07:44:25;100468.19;;;11.49;100.00
32131;BME280;18639;50.716;7.086;2024-02-15T07:46:50;100468.31;;;11.48;100.00
32131;BME280;18639;50.716;7.086;2024-02-15T07:49:16;100503.50;;;11.63;100.00
32131;BME280;18639;50.716;7.086;2024-02-15T07:51:42;100415.44;;;11.12;100.00
32131;BME280;18639;50.716;7.086;2024-02-15T07:54:08;100401.06;;;11.08;100.00
32131;BME280;18639;50.716;7.086;2024-02-15T07:56:34;100509.53;;;11.63;100.00
32131;BME280;18639;50.716;7.086;2024-02-15T07:59:00;100471.06;;;11.45;100.00
32131;BME280;18639;50.716;7.086;2024-02-15T08:01:25;100512.72;;;11.67;100.00
32131;BME280;18639;50.716;7.086;2024-02-15T08:03:51;100521.66;;;11.75;100.00
32131;BME280;18639;50.716;7.086;2024-02-15T08:06:17;100519.91;;;11.76;100.00
32131;BME280;18639;50.716;7.086;2024-02-15T08:08:44;100525.81;;;11.78;100.00
32131;BME280;18639;50.716;7.086;2024-02-15T08:11:14;100526.34;;;11.83;100.00
32131;BME280;18639;50.716;7.086;2024-02-15T08:13:47;100499.56;;;11.70;100.00
32131;BME280;18639;50.716;7.086;2024-02-15T08:16:20;100507.47;;;11.81;100.00
32131;BME280;18639;50.716;7.086;2024-02-15T08:18:48;100512.06;;;11.90;100.00
32131;BME280;18639;50.716;7.086;2024-02-15T08:21:14;100514.66;;;11.90;100.00
32131;BME280;18639;50.716;7.086;2024-02-15T08:23:39;100454.00;;;11.55;100.00
32131;BME280;18639;50.716;7.086;2024-02-15T08:26:05;100508.44;;;11.93;100.00
32131;BME280;18639;50.716;7.086;2024-02-15T08:28:30;100457.53;;;11.66;100.00
32131;BME280;18639;50.716;7.086;2024-02-15T08:30:56;100490.19;;;11.94;100.00
32131;BME280;18639;50.716;7.086;2024-02-15T08:33:22;100499.00;;;12.04;100.00
32131;BME280;18639;50.716;7.086;2024-02-15T08:35:48;100485.03;;;11.94;100.00
32131;BME280;18639;50.716;7.086;2024-02-15T08:38:14;100486.56;;;11.97;100.00
32131;BME280;18639;50.716;7.086;2024-02-15T08:40:39;100496.50;;;12.03;100.00
32131;BME280;18639;50.716;7.086;2024-02-15T08:43:04;100458.00;;;11.86;100.00
32131;BME280;18639;50.716;7.086;2024-02-15T08:45:29;100502.09;;;12.09;100.00
32131;BME280;18639;50.716;7.086;2024-02-15T08:47:55;100497.16;;;12.06;100.00
32131;BME280;18639;50.716;7.086;2024-02-15T08:50:20;100487.81;;;12.04;100.00
32131;BME280;18639;50.716;7.086;2024-02-15T08:52:53;100466.88;;;11.81;100.00
32131;BME280;18639;50.716;7.086;2024-02-15T08:55:18;100455.28;;;11.87;100.00
32131;BME280;18639;50.716;7.086;2024-02-15T08:57:45;100491.75;;;12.09;100.00
32131;BME280;18639;50.716;7.086;2024-02-15T09:00:11;100467.50;;;11.98;100.00
32131;BME280;18639;50.716;7.086;2024-02-15T09:02:44;100490.28;;;12.18;100.00
32131;BME280;18639;50.716;7.086;2024-02-15T09:05:10;100487.91;;;12.28;100.00
32131;BME280;18639;50.716;7.086;2024-02-15T09:07:35;100446.97;;;12.07;100.00
32131;BME280;18639;50.716;7.086;2024-02-15T09:10:05;100427.00;;;11.97;100.00
32131;BME280;18639;50.716;7.086;2024-02-15T09:12:32;100477.22;;;12.32;100.00
32131;BME280;18639;50.716;7.086;2024-02-15T09:14:57;100465.19;;;12.31;100.00
32131;BME280;18639;50.716;7.086;2024-02-15T09:17:23;100441.88;;;12.18;100.00
32131;BME280;18639;50.716;7.086;2024-02-15T09:19:48;100486.09;;;12.41;100.00
32131;BME280;18639;50.716;7.086;2024-02-15T09:22:14;100487.91;;;12.64;100.00
32131;BME280;18639;50.716;7.086;2024-02-15T09:24:40;100426.63;;;12.27;100.00
32131;BME280;18639;50.716;7.086;2024-02-15T09:27:05;100490.34;;;12.78;100.00
32131;BME280;18639;50.716;7.086;2024-02-15T09:29:31;100474.59;;;12.81;100.00
32131;BME280;18639;50.716;7.086;2024-02-15T09:31:58;100482.63;;;12.89;100.00
32131;BME280;18639;50.716;7.086;2024-02-15T09:34:24;100462.44;;;12.82;100.00
32131;BME280;18639;50.716;7.086;2024-02-15T09:36:50;100478.16;;;12.91;100.00
32131;BME280;18639;50.716;7.086;2024-02-15T09:39:15;100487.47;;;12.94;100.00
32131;BME280;18639;50.716;7.086;2024-02-15T09:41:40;100486.09;;;13.01;100.00
32131;BME280;18639;50.716;7.086;2024-02-15T09:44:08;100491.28;;;13.14;100.00
32131;BME280;18639;50.716;7.086;2024-02-15T09:46:42;100479.25;;;13.13;100.00
32131;BME280;18639;50.716;7.086;2024-02-15T09:49:11;100421.88;;;12.81;100.00
32131;BME280;18639;50.716;7.086;2024-02-15T09:51:37;100423.13;;;12.99;100.00
32131;BME280;18639;50.716;7.086;2024-02-15T09:54:04;100437.56;;;13.38;100.00
32131;BME280;18639;50.716;7.086;2024-02-15T09:56:30;100457.69;;;13.80;100.00
32131;BME280;18639;50.716;7.086;2024-02-15T09:58:57;100445.06;;;14.09;100.00
32131;BME280;18639;50.716;7.086;2024-02-15T10:01:25;100471.84;;;14.54;100.00
32131;BME280;18639;50.716;7.086;2024-02-15T10:03:51;100429.59;;;14.41;100.00
32131;BME280;18639;50.716;7.086;2024-02-15T10:06:17;100435.59;;;14.53;100.00
32131;BME280;18639;50.716;7.086;2024-02-15T10:08:44;100465.59;;;14.57;100.00
32131;BME280;18639;50.716;7.086;2024-02-15T10:11:10;100439.97;;;14.41;100.00
32131;BME280;18639;50.716;7.086;2024-02-15T10:13:36;100482.25;;;14.54;100.00
32131;BME280;18639;50.716;7.086;2024-02-15T10:16:18;100452.59;;;14.23;100.00
32131;BME280;18639;50.716;7.086;2024-02-15T10:18:46;100471.84;;;14.32;100.00
32131;BME280;18639;50.716;7.086;2024-02-15T10:21:28;100473.78;;;14.52;100.00
32131;BME280;18639;50.716;7.086;2024-02-15T10:24:07;100472.69;;;14.44;100.00
32131;BME280;18639;50.716;7.086;2024-02-15T10:26:34;100485.94;;;14.41;100.00
32131;BME280;18639;50.716;7.086;2024-02-15T10:29:10;100485.34;;;14.37;100.00
32131;BME280;18639;50.716;7.086;2024-02-15T10:31:40;100487.44;;;14.32;100.00
32131;BME280;18639;50.716;7.086;2024-02-15T10:34:16;100481.19;;;14.34;100.00
32131;BME280;18639;50.716;7.086;2024-02-15T10:36:44;100438.78;;;14.01;100.00
32131;BME280;18639;50.716;7.086;2024-02-15T10:39:14;100486.75;;;14.19;100.00
32131;BME280;18639;50.716;7.086;2024-02-15T10:41:45;100456.28;;;13.99;100.00
32131;BME280;18639;50.716;7.086;2024-02-15T10:44:17;100487.13;;;14.14;100.00
32131;BME280;18639;50.716;7.086;2024-02-15T10:46:50;100477.09;;;14.10;100.00
32131;BME280;18639;50.716;7.086;2024-02-15T10:49:17;100466.44;;;14.13;100.00
32131;BME280;18639;50.716;7.086;2024-02-15T10:51:46;100439.97;;;13.97;100.00
32131;BME280;18639;50.716;7.086;2024-02-15T10:54:15;100428.66;;;13.98;100.00
32131;BME280;18639;50.716;7.086;2024-02-15T10:56:45;100458.63;;;14.24;100.00
32131;BME280;18639;50.716;7.086;2024-02-15T10:59:19;100450.72;;;14.25;100.00
32131;BME280;18639;50.716;7.086;2024-02-15T11:01:49;100426.72;;;14.22;100.00
32131;BME280;18639;50.716;7.086;2024-02-15T11:04:20;100448.47;;;14.43;100.00
32131;BME280;18639;50.716;7.086;2024-02-15T11:06:52;100460.50;;;14.66;100.00
32131;BME280;18639;50.716;7.086;2024-02-15T11:09:23;100442.09;;;14.47;100.00
32131;BME280;18639;50.716;7.086;2024-02-15T11:11:48;100407.56;;;14.34;100.00
32131;BME280;18639;50.716;7.086;2024-02-15T11:14:30;100435.88;;;14.70;100.00
32131;BME280;18639;50.716;7.086;2024-02-15T11:17:00;100415.66;;;14.74;100.00
32131;BME280;18639;50.716;7.086;2024-02-15T11:22:30;100399.78;;;14.77;100.00
32131;BME280;18639;50.716;7.086;2024-02-15T11:24:55;100438.38;;;15.04;100.00
32131;BME280;18639;50.716;7.086;2024-02-15T11:27:26;100414.38;;;15.00;100.00
32131;BME280;18639;50.716;7.086;2024-02-15T11:29:52;100427.69;;;15.07;100.00
32131;BME280;18639;50.716;7.086;2024-02-15T11:35:07;100428.00;;;15.13;100.00
32131;BME280;18639;50.716;7.086;2024-02-15T11:40:18;100353.22;;;14.74;100.00
32131;BME280;18639;50.716;7.086;2024-02-15T11:42:44;100392.91;;;15.08;100.00
32131;BME280;18639;50.716;7.086;2024-02-15T11:45:09;100379.72;;;15.00;100.00
32131;BME280;18639;50.716;7.086;2024-02-15T11:47:39;100410.94;;;15.21;100.00
32131;BME280;18639;50.716;7.086;2024-02-15T11:50:08;100399.38;;;15.13;100.00
32131;BME280;18639;50.716;7.086;2024-02-15T11:52:38;100395.44;;;15.19;100.00
32131;BME280;18639;50.716;7.086;2024-02-15T11:55:08;100375.97;;;15.13;100.00
32131;BME280;18639;50.716;7.086;2024-02-15T11:57:36;100391.41;;;15.26;100.00
32131;BME280;18639;50.716;7.086;2024-02-15T12:00:19;100391.91;;;15.20;100.00
32131;BME280;18639;50.716;7.086;2024-02-15T12:03:03;100390.81;;;15.23;100.00
32131;BME280;18639;50.716;7.086;2024-02-15T12:05:49;100384.78;;;15.22;100.00
32131;BME280;18639;50.716;7.086;2024-02-15T12:08:33;100372.19;;;15.06;100.00
32131;BME280;18639;50.716;7.086;2024-02-15T12:11:18;100394.00;;;15.26;100.00
32131;BME280;18639;50.716;7.086;2024-02-15T12:14:02;100402.03;;;15.23;100.00
32131;BME280;18639;50.716;7.086;2024-02-15T12:16:45;100398.16;;;15.17;100.00
32131;BME280;18639;50.716;7.086;2024-02-15T12:19:29;100388.84;;;15.15;100.00
32131;BME280;18639;50.716;7.086;2024-02-15T12:21:56;100382.44;;;15.19;100.00
32131;BME280;18639;50.716;7.086;2024-02-15T12:24:22;100361.09;;;15.04;100.00
32131;BME280;18639;50.716;7.086;2024-02-15T12:26:52;100339.63;;;14.91;100.00
32131;BME280;18639;50.716;7.086;2024-02-15T12:29:24;100369.53;;;15.17;100.00
32131;BME280;18639;50.716;7.086;2024-02-15T12:31:50;100335.03;;;14.95;100.00
32131;BME280;18639;50.716;7.086;2024-02-15T12:34:20;100346.13;;;14.97;100.00
32131;BME280;18639;50.716;7.086;2024-02-15T12:36:45;100362.31;;;15.21;100.00
32131;BME280;18639;50.716;7.086;2024-02-15T12:39:11;100290.47;;;14.88;100.00
32131;BME280;18639;50.716;7.086;2024-02-15T12:41:55;100342.59;;;15.28;100.00
32131;BME280;18639;50.716;7.086;2024-02-15T12:44:20;100346.09;;;15.38;100.00
32131;BME280;18639;50.716;7.086;2024-02-15T12:46:46;100341.34;;;15.43;100.00
32131;BME280;18639;50.716;7.086;2024-02-15T12:51:53;100346.34;;;15.56;100.00
32131;BME280;18639;50.716;7.086;2024-02-15T12:54:20;100295.50;;;15.31;100.00